Warning: Javascript must be enabled to use all the features on this page!


Page Loading - Please Wait...

* We've detected you're using a mobile device. Find our Next Generation Station Page here.
Click to hideNews Bulletins

Peak Streamflow for the Nation

USGS 02371000 CONECUH RIVER NEAR TROY AL

Pike County, Alabama
Hydrologic Unit Code 03140301
Latitude  31°50'40", Longitude  85°59'41" NAD27
Drainage area 257.00  square miles
Gage datum 313.30 feet above NGVD29
Output formats
Table
Graph
Tab-separated file
peakfq (watstore) format
Reselect output format
Water
Year
Date Gage
Height
(feet)
Stream-
flow
(cfs)
1944 1944-03-23 15.58 16,500
1945 1945-02-25 9.06 1,260
1946 1946-05-21 13.05 7,700
1947 1947-04-02 14.00 10,500
1948 1948-03-07 12.20 5,800
1949 1948-11-28 16.10 18,000
1950 1950-04-06 10.50 2,870
1951 1951-03-21 8.30 825
1952 1952-03-25 14.20 9,660
1953 1953-05-06 15.96 18,000
1954 1953-12-07 13.50 7,820
1955 1955-04-13 12.00 4,750
1956 1956-03-18 11.20 3,430
1957 1957-04-05 13.60 8,070
1958 1957-11-24 10.70 2,760
1959 1959-03-29 12.20 5,120
1960 1960-04-04 13.80 8,580
1961 1961-08-31 14.58 10,800
1962 1962-04-03 11.98 4,710
1963 1963-01-23 11.20 3,430
1964 1964-04-27 11.85 4,480
1965 1964-12-28 11.69 4,200
1966 1966-03-04 11.79 4,370
1967 1967-08-27 9.92 1,860
1968 1967-12-11 9.29 1,290
1990 1990-03-17 19.41 36,0007
1994 1994-07-08 15.58 15,0007
?
  Peak Streamflow Qualification Codes.